createdAt,value
2023-03-19T00:04:02.917Z,45.18
2023-03-19T00:09:04.950Z,44.96
2023-03-19T00:14:07.001Z,44.93
2023-03-19T00:19:10.244Z,45.16
2023-03-19T00:24:12.789Z,45.19
2023-03-19T00:29:15.092Z,44.95
2023-03-19T00:34:19.993Z,44.94
2023-03-19T00:39:22.468Z,44.95
2023-03-19T00:44:24.389Z,44.89
2023-03-19T00:49:26.252Z,44.96
2023-03-19T00:54:28.317Z,44.81
2023-03-19T00:59:30.229Z,44.82
2023-03-19T01:04:32.277Z,44.87
2023-03-19T01:09:36.038Z,45.21
2023-03-19T01:14:37.792Z,45.22
2023-03-19T01:19:39.519Z,45.09
2023-03-19T01:24:41.817Z,45.15
2023-03-19T01:29:43.751Z,45.22
2023-03-19T01:34:45.618Z,45.07
2023-03-19T01:39:47.567Z,44.96
2023-03-19T01:44:49.565Z,44.96
2023-03-19T01:49:55.676Z,44.93
2023-03-19T01:54:59.463Z,45.07
2023-03-19T02:00:04.262Z,45.29
2023-03-19T02:05:11.018Z,45.11
2023-03-19T02:10:16.175Z,45.13
2023-03-19T02:15:19.096Z,45.22
2023-03-19T02:20:47.452Z,45.21
2023-03-19T02:25:55.232Z,44.98
2023-03-19T02:30:57.128Z,44.96
2023-03-19T02:35:59.482Z,45.33
2023-03-19T02:41:04.962Z,45.08
2023-03-19T02:46:11.329Z,45.16
2023-03-19T02:51:13.909Z,45.21
2023-03-19T02:56:16.056Z,44.96
2023-03-19T03:01:17.968Z,45.02
2023-03-19T03:06:20.156Z,45.17
2023-03-19T03:11:22.993Z,45.35
2023-03-19T03:16:26.074Z,45.16
2023-03-19T03:21:27.880Z,45.32
2023-03-19T03:26:29.948Z,45.30
2023-03-19T03:31:32.185Z,45.02
2023-03-19T03:36:34.000Z,45.08
2023-03-19T03:41:35.975Z,45.30
2023-03-19T03:46:38.191Z,45.26
2023-03-19T03:51:40.219Z,45.14
2023-03-19T03:56:42.566Z,45.16
2023-03-19T04:01:44.775Z,45.32
2023-03-19T04:06:47.228Z,45.01
2023-03-19T04:11:51.477Z,45.05
2023-03-19T04:16:53.914Z,45.27
2023-03-19T04:21:55.844Z,45.12
2023-03-19T04:26:57.640Z,45.30
2023-03-19T04:31:59.716Z,45.32
2023-03-19T04:37:01.854Z,45.40
2023-03-19T04:42:04.702Z,45.22
2023-03-19T04:47:06.823Z,45.43
2023-03-19T04:52:09.739Z,45.48
2023-03-19T04:57:11.924Z,45.55
2023-03-19T05:02:13.818Z,45.31
2023-03-19T05:07:15.782Z,45.27
2023-03-19T05:12:17.765Z,45.37
2023-03-19T05:17:19.750Z,45.52
2023-03-19T05:22:21.617Z,45.42
2023-03-19T05:27:23.622Z,45.17
2023-03-19T05:32:25.806Z,45.56
2023-03-19T05:37:27.862Z,45.31
2023-03-19T05:42:29.961Z,45.45
2023-03-19T05:47:32.357Z,45.17
2023-03-19T05:52:34.486Z,45.41
2023-03-19T05:57:36.621Z,45.40
2023-03-19T06:02:39.172Z,45.61
2023-03-19T06:07:41.170Z,45.55
2023-03-19T06:12:43.122Z,45.46
2023-03-19T06:17:45.004Z,45.54
2023-03-19T06:22:47.053Z,45.22
2023-03-19T06:27:48.822Z,45.72
2023-03-19T06:32:51.065Z,45.67
2023-03-19T06:37:53.103Z,45.64
2023-03-19T06:42:54.967Z,45.67
2023-03-19T06:47:57.420Z,45.38
2023-03-19T06:52:59.438Z,45.55
2023-03-19T06:58:01.281Z,45.49
2023-03-19T07:03:03.174Z,45.77
2023-03-19T07:08:07.751Z,45.30
2023-03-19T07:13:09.674Z,45.83
2023-03-19T07:18:11.790Z,45.35
2023-03-19T07:23:13.768Z,45.56
2023-03-19T07:28:15.871Z,45.78
2023-03-19T07:33:17.871Z,45.64
2023-03-19T07:38:20.175Z,45.54
2023-03-19T07:43:21.999Z,45.68
2023-03-19T07:48:24.196Z,45.65
2023-03-19T07:53:26.276Z,45.57
2023-03-19T07:58:29.057Z,45.51
2023-03-19T08:03:34.697Z,45.71
2023-03-19T08:08:36.988Z,45.65
2023-03-19T08:13:39.598Z,45.89
2023-03-19T08:18:41.590Z,45.61
2023-03-19T08:23:43.366Z,45.64
2023-03-19T08:28:45.297Z,45.72
2023-03-19T08:33:47.168Z,45.62
2023-03-19T08:38:48.956Z,45.86
2023-03-19T08:43:51.356Z,45.97
2023-03-19T08:48:53.566Z,45.80
2023-03-19T08:53:55.238Z,47.17
2023-03-19T08:58:57.705Z,47.25
2023-03-19T09:03:59.476Z,47.46
2023-03-19T09:09:01.828Z,47.79
2023-03-19T09:14:03.979Z,47.93
2023-03-19T09:19:05.809Z,48.19
2023-03-19T09:24:07.808Z,48.08
2023-03-19T09:29:09.780Z,47.91
2023-03-19T09:34:11.762Z,47.83
2023-03-19T09:39:13.621Z,48.20
2023-03-19T09:44:31.305Z,48.10
2023-03-19T09:49:39.281Z,48.09
2023-03-19T09:54:48.559Z,48.34
2023-03-19T09:59:50.410Z,48.26
2023-03-19T10:05:11.659Z,47.91
2023-03-19T10:10:30.639Z,47.47
2023-03-19T10:15:33.632Z,47.72
2023-03-19T10:20:59.509Z,47.52
2023-03-19T10:26:05.061Z,47.55
2023-03-19T10:31:47.719Z,47.54
2023-03-19T10:36:49.547Z,47.58
2023-03-19T10:42:05.772Z,47.08
2023-03-19T10:47:13.562Z,47.32
2023-03-19T10:52:20.033Z,47.20
2023-03-19T10:57:33.837Z,47.32
2023-03-19T11:02:36.461Z,47.28
2023-03-19T11:07:38.795Z,46.95
2023-03-19T11:12:40.830Z,47.60
2023-03-19T11:17:49.465Z,47.39
2023-03-19T11:22:53.011Z,47.15
2023-03-19T11:28:04.152Z,47.35
2023-03-19T11:33:16.034Z,47.07
2023-03-19T11:38:34.208Z,47.35
2023-03-19T11:43:45.667Z,46.88
2023-03-19T11:49:06.293Z,47.06
2023-03-19T11:54:57.401Z,46.95
2023-03-19T12:00:14.053Z,46.84
2023-03-19T12:05:24.812Z,46.64
2023-03-19T12:10:35.743Z,46.58
2023-03-19T12:16:02.165Z,46.57
2023-03-19T12:21:16.155Z,46.35
2023-03-19T12:26:32.717Z,46.04
2023-03-19T12:32:03.001Z,46.42
2023-03-19T12:37:20.177Z,46.26
2023-03-19T12:42:22.715Z,46.18
2023-03-19T12:47:34.614Z,46.00
2023-03-19T12:52:39.630Z,46.08
2023-03-19T12:57:48.186Z,45.99
2023-03-19T13:03:00.595Z,46.00
2023-03-19T13:08:27.934Z,46.13
2023-03-19T13:13:53.751Z,46.01
2023-03-19T13:19:21.116Z,45.99
2023-03-19T13:24:29.360Z,45.86
2023-03-19T13:29:32.846Z,45.78
2023-03-19T13:34:37.403Z,45.74
2023-03-19T13:39:40.068Z,45.50
2023-03-19T13:45:25.229Z,45.80
2023-03-19T13:50:30.394Z,45.81
2023-03-19T13:55:54.050Z,45.80
2023-03-19T14:00:59.519Z,45.85
2023-03-19T14:06:02.110Z,45.62
2023-03-19T14:11:06.352Z,45.55
2023-03-19T14:16:17.018Z,45.48
2023-03-19T14:21:46.787Z,45.72
2023-03-19T14:26:50.280Z,45.73
2023-03-19T14:31:55.945Z,45.66
2023-03-19T14:37:20.249Z,45.52
2023-03-19T14:42:28.078Z,45.63
2023-03-19T14:47:48.705Z,45.52
2023-03-19T14:53:00.110Z,45.61
2023-03-19T14:58:02.494Z,45.43
2023-03-19T15:03:04.475Z,45.42
2023-03-19T15:08:13.159Z,45.21
2023-03-19T15:13:48.726Z,45.50
2023-03-19T15:18:51.014Z,45.25
2023-03-19T15:23:53.268Z,45.29
2023-03-19T15:28:55.424Z,45.12
2023-03-19T15:33:58.015Z,45.24
2023-03-19T15:39:05.104Z,45.32
2023-03-19T15:44:12.414Z,46.82
2023-03-19T15:49:23.263Z,47.70
2023-03-19T15:54:26.760Z,49.11
2023-03-19T15:59:32.661Z,50.54
2023-03-19T16:04:55.972Z,52.05
2023-03-19T16:09:57.556Z,50.53
2023-03-19T16:14:59.687Z,49.21
2023-03-19T16:20:04.003Z,49.08
2023-03-19T16:25:17.073Z,48.93
2023-03-19T16:30:25.939Z,48.33
2023-03-19T16:35:30.640Z,48.40
2023-03-19T16:40:41.555Z,47.97
2023-03-19T16:45:44.189Z,47.97
2023-03-19T16:50:47.799Z,47.64
2023-03-19T16:55:50.424Z,47.39
2023-03-19T17:00:52.731Z,47.50
2023-03-19T17:05:54.822Z,47.09
2023-03-19T17:10:58.121Z,47.23
2023-03-19T17:16:03.561Z,47.00
2023-03-19T17:21:11.214Z,46.75
2023-03-19T17:26:28.212Z,46.86
2023-03-19T17:31:32.471Z,46.77
2023-03-19T17:36:34.622Z,46.69
2023-03-19T17:41:37.074Z,46.56
2023-03-19T17:46:42.781Z,46.83
2023-03-19T17:51:44.830Z,47.07
2023-03-19T17:56:47.045Z,47.22
2023-03-19T18:01:49.296Z,46.86
2023-03-19T18:06:54.774Z,46.87
2023-03-19T18:11:57.005Z,46.76
2023-03-19T18:16:59.127Z,46.80
2023-03-19T18:22:01.311Z,46.94
2023-03-19T18:27:03.513Z,46.73
2023-03-19T18:32:11.685Z,46.53
2023-03-19T18:37:18.228Z,46.75
2023-03-19T18:42:20.241Z,47.52
2023-03-19T18:47:22.442Z,47.36
2023-03-19T18:52:24.278Z,47.46
2023-03-19T18:57:26.326Z,47.56
2023-03-19T19:02:32.714Z,47.58
2023-03-19T19:07:34.691Z,47.07
2023-03-19T19:12:39.685Z,47.31
2023-03-19T19:17:42.464Z,47.53
2023-03-19T19:22:45.045Z,47.52
2023-03-19T19:27:51.288Z,47.04
2023-03-19T19:32:53.250Z,47.47
2023-03-19T19:37:55.864Z,47.34
2023-03-19T19:42:58.457Z,46.99
2023-03-19T19:48:00.558Z,47.41
2023-03-19T19:53:02.510Z,47.24
2023-03-19T19:58:07.476Z,47.13
2023-03-19T20:03:20.981Z,46.85
2023-03-19T20:08:23.539Z,46.88
2023-03-19T20:13:29.531Z,46.78
2023-03-19T20:18:35.957Z,46.86
2023-03-19T20:23:37.946Z,46.98
2023-03-19T20:28:40.247Z,46.84
2023-03-19T20:33:42.561Z,46.60
2023-03-19T20:38:44.643Z,46.80
2023-03-19T20:43:46.910Z,46.47
2023-03-19T20:48:49.278Z,46.66
2023-03-19T20:53:53.119Z,46.63
2023-03-19T20:58:55.234Z,46.33
2023-03-19T21:03:57.542Z,46.42
2023-03-19T21:09:02.184Z,46.28
2023-03-19T21:14:04.943Z,46.66
2023-03-19T21:19:06.833Z,46.39
2023-03-19T21:24:16.445Z,46.16
2023-03-19T21:29:28.976Z,46.39
2023-03-19T21:34:30.836Z,46.54
2023-03-19T21:39:32.728Z,46.42
2023-03-19T21:44:34.663Z,46.35
2023-03-19T21:49:36.794Z,46.83
2023-03-19T21:54:38.970Z,47.27
2023-03-19T21:59:41.766Z,47.66
2023-03-19T22:04:43.592Z,47.76
2023-03-19T22:09:45.485Z,47.49
2023-03-19T22:14:47.665Z,47.94
2023-03-19T22:19:49.538Z,47.51
2023-03-19T22:24:53.231Z,47.32
2023-03-19T22:29:55.306Z,47.46
2023-03-19T22:34:57.263Z,47.32
2023-03-19T22:39:59.202Z,47.19
2023-03-19T22:45:01.248Z,47.03
2023-03-19T22:50:05.559Z,46.88
2023-03-19T22:55:07.763Z,46.97
2023-03-19T23:00:19.625Z,46.67
2023-03-19T23:05:27.150Z,46.64
2023-03-19T23:10:32.562Z,46.62
2023-03-19T23:15:34.940Z,46.74
2023-03-19T23:20:37.254Z,46.42
2023-03-19T23:25:39.540Z,46.27
2023-03-19T23:30:41.735Z,46.44
2023-03-19T23:35:43.957Z,46.08
2023-03-19T23:40:46.942Z,46.20
2023-03-19T23:45:50.824Z,46.02
2023-03-19T23:50:53.113Z,45.76
2023-03-19T23:56:01.229Z,45.66
